Time;durP1;ratioP1;P1;durP2;ratioP2;P2;SDS_P1;SDS_P2;PMS_P1;PMS_P2;Temp;Humidity;BMP_temperature;BMP_pressure;BME280_temperature;BME280_humidity;BME280_pressure;Samples;Min_cycle;Max_cycle;Signal;HPM_P1;HPM_P2
2021/03/28 00:02:19;;;;;;;3.40;2.30;;;6.60;1.00;;;;;;5067691;28;20473;-56
2021/03/28 00:05:07;;;;;;;3.40;2.00;;;6.50;1.00;;;;;;5067697;28;20479;-57
2021/03/28 00:07:56;;;;;;;5.43;2.90;;;6.40;1.00;;;;;;5067043;28;20441;-57
2021/03/28 00:10:38;;;;;;;3.63;2.67;;;6.40;1.00;;;;;;5067425;28;20452;-58
2021/03/28 00:13:16;;;;;;;3.40;2.43;;;6.40;1.00;;;;;;5065679;28;20454;-57
2021/03/28 00:15:56;;;;;;;4.20;2.60;;;6.40;1.00;;;;;;5066211;28;20531;-59
2021/03/28 00:18:29;;;;;;;6.33;3.00;;;6.30;1.00;;;;;;5064582;28;20449;-56
2021/03/28 00:21:21;;;;;;;6.13;2.20;;;6.40;1.00;;;;;;5067221;28;20896;-57
2021/03/28 00:23:49;;;;;;;3.90;2.70;;;6.50;1.00;;;;;;5067450;28;20453;-57
2021/03/28 00:26:32;;;;;;;4.80;2.70;;;6.40;1.00;;;;;;5067681;28;20481;-57
2021/03/28 00:29:14;;;;;;;2.40;2.20;;;6.30;1.00;;;;;;5067266;28;20523;-57
2021/03/28 00:31:58;;;;;;;4.77;2.70;;;6.20;1.00;;;;;;5067528;28;20446;-59
2021/03/28 00:34:36;;;;;;;4.17;2.73;;;6.20;1.00;;;;;;5063566;28;20764;-57
2021/03/28 00:37:23;;;;;;;7.33;2.57;;;6.20;1.00;;;;;;5065048;28;20449;-59
2021/03/28 00:40:12;;;;;;;5.13;2.30;;;6.20;1.00;;;;;;5069285;28;20445;-56
2021/03/28 00:42:44;;;;;;;7.00;2.33;;;6.40;1.00;;;;;;5066239;28;20496;-57
2021/03/28 00:45:40;;;;;;;3.27;2.50;;;6.40;1.00;;;;;;5064461;28;20934;-57
2021/03/28 00:48:25;;;;;;;4.50;2.80;;;6.30;1.00;;;;;;5066987;28;20936;-57
2021/03/28 00:51:07;;;;;;;4.90;2.57;;;6.20;1.00;;;;;;5064852;28;20441;-58
2021/03/28 00:53:40;;;;;;;3.80;2.13;;;6.20;1.00;;;;;;5066660;28;20523;-58
2021/03/28 00:56:18;;;;;;;3.40;2.83;;;6.20;1.00;;;;;;5066851;28;20448;-59
2021/03/28 00:58:59;;;;;;;2.93;2.43;;;6.10;1.00;;;;;;5063593;28;20441;-58
2021/03/28 01:01:33;;;;;;;4.63;2.77;;;6.10;1.00;;;;;;5067021;28;20445;-58
2021/03/28 01:04:36;;;;;;;3.37;3.10;;;6.10;1.00;;;;;;5067761;28;20444;-58
2021/03/28 01:07:18;;;;;;;5.00;3.67;;;6.10;1.00;;;;;;5075427;28;20428;-58
2021/03/28 01:10:20;;;;;;;5.33;2.87;;;6.10;1.00;;;;;;5069066;28;20437;-58
2021/03/28 01:13:33;;;;;;;5.80;3.10;;;6.10;1.00;;;;;;5072819;28;20440;-60
2021/03/28 01:16:36;;;;;;;3.40;3.00;;;6.00;1.00;;;;;;5022968;28;20452;-58
2021/03/28 01:19:37;;;;;;;5.43;2.83;;;6.00;1.00;;;;;;5073212;28;20445;-59
2021/03/28 01:22:33;;;;;;;3.80;3.43;;;5.90;1.00;;;;;;5071472;28;20870;-58
2021/03/28 01:25:35;;;;;;;3.63;3.33;;;6.00;1.00;;;;;;5073353;28;21115;-57
2021/03/28 01:28:18;;;;;;;4.40;2.87;;;5.90;1.00;;;;;;5069599;28;20847;-58
2021/03/28 01:31:13;;;;;;;3.03;2.60;;;5.80;1.00;;;;;;5072207;28;20808;-57
2021/03/28 01:33:54;;;;;;;3.93;3.03;;;5.90;1.00;;;;;;5074823;28;20453;-58
2021/03/28 01:36:27;;;;;;;7.40;2.80;;;5.90;1.00;;;;;;5072987;28;20444;-59
2021/03/28 01:39:10;;;;;;;4.30;2.77;;;6.00;1.00;;;;;;5073975;28;20919;-59
2021/03/28 01:41:43;;;;;;;5.87;3.30;;;6.00;1.00;;;;;;5072357;28;20440;-58
2021/03/28 01:44:23;;;;;;;4.13;2.80;;;5.90;1.00;;;;;;5070535;28;20795;-57
2021/03/28 01:47:07;;;;;;;3.90;3.00;;;6.00;1.00;;;;;;5072209;28;20946;-58
2021/03/28 01:50:06;;;;;;;3.40;3.10;;;5.90;1.00;;;;;;5070257;28;20433;-57
2021/03/28 01:52:54;;;;;;;4.20;2.83;;;5.80;1.00;;;;;;5071510;28;20480;-58
2021/03/28 01:55:30;;;;;;;4.53;2.90;;;5.80;1.00;;;;;;5084605;28;20452;-58
2021/03/28 01:58:03;;;;;;;3.50;2.63;;;5.80;1.00;;;;;;5072948;28;20442;-57
2021/03/28 02:00:31;;;;;;;5.50;3.00;;;5.90;1.00;;;;;;5071213;28;20442;-57
2021/03/28 02:03:20;;;;;;;4.10;3.20;;;5.90;1.00;;;;;;5071510;28;20465;-57
2021/03/28 02:06:19;;;;;;;4.73;3.03;;;5.80;1.00;;;;;;5073876;28;20934;-59
2021/03/28 02:08:57;;;;;;;2.60;2.30;;;5.70;1.00;;;;;;5071287;28;20905;-57
2021/03/28 02:11:43;;;;;;;3.40;2.60;;;5.70;1.00;;;;;;5071826;28;20560;-57
2021/03/28 02:14:09;;;;;;;3.43;2.90;;;5.70;1.00;;;;;;5068996;28;20441;-59
2021/03/28 02:16:59;;;;;;;3.13;2.70;;;5.60;1.00;;;;;;5071649;28;20467;-57
2021/03/28 02:19:29;;;;;;;2.93;2.70;;;5.70;1.00;;;;;;5071451;28;20211;-59
2021/03/28 02:22:02;;;;;;;4.73;3.00;;;5.70;1.00;;;;;;5073610;28;20473;-58
2021/03/28 02:24:37;;;;;;;3.43;2.70;;;5.70;1.00;;;;;;5070879;28;20457;-59
2021/03/28 02:27:28;;;;;;;4.70;3.13;;;5.70;1.00;;;;;;5070926;28;20474;-58
2021/03/28 02:30:07;;;;;;;5.70;2.90;;;5.70;1.00;;;;;;5071091;28;20472;-57
2021/03/28 02:32:43;;;;;;;3.57;3.23;;;5.60;1.00;;;;;;5073878;28;20433;-57
2021/03/28 02:35:27;;;;;;;3.70;3.00;;;5.60;1.00;;;;;;5073053;28;20437;-57
2021/03/28 02:38:24;;;;;;;3.60;2.83;;;5.70;1.00;;;;;;5091633;28;20817;-58
2021/03/28 02:41:05;;;;;;;5.80;3.40;;;5.70;1.00;;;;;;5081908;28;20450;-56
2021/03/28 02:43:43;;;;;;;4.43;2.70;;;5.70;1.00;;;;;;5071937;28;20958;-59
2021/03/28 02:46:34;;;;;;;5.70;3.53;;;5.60;1.00;;;;;;5078675;28;20574;-58
2021/03/28 02:49:36;;;;;;;3.93;2.97;;;5.70;1.00;;;;;;5071437;28;20503;-59
2021/03/28 02:52:05;;;;;;;4.00;2.73;;;5.70;1.00;;;;;;5068312;28;20543;-56
2021/03/28 02:55:08;;;;;;;4.37;2.93;;;5.70;1.00;;;;;;5080018;28;20435;-57
2021/03/28 02:57:57;;;;;;;4.17;3.07;;;5.60;1.00;;;;;;5069874;28;20438;-58
2021/03/28 03:00:38;;;;;;;4.70;3.17;;;5.70;1.00;;;;;;5071499;28;20942;-56
2021/03/28 03:03:36;;;;;;;7.20;3.30;;;5.80;1.00;;;;;;5071712;28;20468;-58
2021/03/28 03:06:18;;;;;;;4.00;3.17;;;5.70;1.00;;;;;;5036079;28;20452;-58
2021/03/28 03:09:08;;;;;;;3.73;2.77;;;5.80;1.00;;;;;;5070123;28;20429;-57
2021/03/28 03:11:47;;;;;;;3.60;3.03;;;5.80;1.00;;;;;;5084673;28;20437;-56
2021/03/28 03:14:53;;;;;;;4.30;3.37;;;5.80;1.00;;;;;;5090699;28;20442;-57
2021/03/28 03:17:56;;;;;;;4.93;3.03;;;5.90;1.00;;;;;;5069637;28;20526;-55
2021/03/28 03:20:30;;;;;;;4.00;3.30;;;5.80;1.00;;;;;;5068436;28;20961;-58
2021/03/28 03:23:33;;;;;;;5.60;3.17;;;5.80;1.00;;;;;;5078970;28;20953;-57
2021/03/28 03:26:15;;;;;;;9.20;3.37;;;5.80;1.00;;;;;;5071426;28;20876;-58
2021/03/28 03:28:56;;;;;;;7.00;3.83;;;5.90;1.00;;;;;;5070343;28;20437;-58
2021/03/28 03:31:29;;;;;;;5.40;4.30;;;6.00;1.00;;;;;;5069976;28;20485;-58
2021/03/28 03:34:35;;;;;;;5.53;2.97;;;6.00;1.00;;;;;;5068216;28;20501;-57
2021/03/28 03:37:48;;;;;;;4.87;3.10;;;5.90;1.00;;;;;;5072705;28;20434;-58
2021/03/28 03:40:34;;;;;;;4.30;3.10;;;6.00;1.00;;;;;;5074773;28;20441;-58
2021/03/28 03:43:41;;;;;;;6.60;3.60;;;5.90;1.00;;;;;;5069393;28;20527;-57
2021/03/28 03:46:09;;;;;;;7.07;3.77;;;5.80;1.00;;;;;;5069739;28;20501;-59
2021/03/28 03:48:50;;;;;;;4.27;3.10;;;5.80;1.00;;;;;;5070118;28;20514;-58
2021/03/28 03:51:36;;;;;;;4.13;3.40;;;5.60;1.00;;;;;;5068401;28;20444;-58
2021/03/28 03:54:07;;;;;;;4.70;2.80;;;5.60;1.00;;;;;;5070472;28;20444;-57
2021/03/28 03:56:47;;;;;;;4.80;3.03;;;5.70;1.00;;;;;;5069760;28;20434;-58
2021/03/28 03:59:43;;;;;;;4.50;3.60;;;5.60;1.00;;;;;;5069365;28;20452;-58
2021/03/28 04:02:31;;;;;;;3.50;3.20;;;5.60;1.00;;;;;;5070300;28;20878;-58
2021/03/28 04:05:30;;;;;;;5.00;3.87;;;5.70;1.00;;;;;;5079915;28;20539;-59
2021/03/28 04:08:21;;;;;;;4.43;4.03;;;5.70;1.00;;;;;;5069173;28;20911;-59
2021/03/28 04:11:03;;;;;;;5.70;3.60;;;5.60;1.00;;;;;;5064637;28;20541;-57
2021/03/28 04:13:54;;;;;;;5.10;4.10;;;5.50;1.00;;;;;;5075536;28;20436;-58
2021/03/28 04:16:35;;;;;;;4.20;3.80;;;5.50;1.00;;;;;;5065328;28;20452;-57
2021/03/28 04:19:20;;;;;;;5.63;4.43;;;5.40;1.00;;;;;;5067627;28;20455;-57
2021/03/28 04:22:04;;;;;;;5.60;3.30;;;5.30;1.00;;;;;;5066667;28;20479;-57
2021/03/28 04:24:32;;;;;;;3.80;3.00;;;5.30;1.00;;;;;;5067545;28;22296;-59
2021/03/28 04:27:14;;;;;;;6.50;4.27;;;5.30;1.00;;;;;;5067411;28;20537;-58
2021/03/28 04:29:45;;;;;;;4.10;3.67;;;5.30;1.00;;;;;;5066704;28;20836;-59
2021/03/28 04:32:36;;;;;;;4.67;3.80;;;5.40;1.00;;;;;;5067613;28;20489;-58
2021/03/28 04:35:17;;;;;;;6.57;4.17;;;5.70;1.00;;;;;;5053688;28;20468;-59
2021/03/28 04:38:04;;;;;;;8.33;3.93;;;5.90;1.00;;;;;;5068144;28;20838;-57
2021/03/28 04:40:39;;;;;;;8.00;4.63;;;5.90;1.00;;;;;;5065784;28;20445;-58
2021/03/28 04:43:26;;;;;;;4.70;3.70;;;6.10;1.00;;;;;;5071023;28;20506;-58
2021/03/28 04:46:27;;;;;;;4.07;3.67;;;5.80;1.00;;;;;;5069683;28;20448;-57
2021/03/28 04:49:17;;;;;;;4.53;3.97;;;5.90;1.00;;;;;;5056566;28;20926;-59
2021/03/28 04:52:10;;;;;;;3.67;3.33;;;5.70;1.00;;;;;;5071154;28;20935;-57
2021/03/28 04:55:13;;;;;;;3.47;3.17;;;5.70;1.00;;;;;;5070217;28;20472;-58
2021/03/28 04:58:00;;;;;;;8.80;3.93;;;5.60;1.00;;;;;;5069802;28;20439;-58
2021/03/28 05:00:47;;;;;;;4.13;3.80;;;5.70;1.00;;;;;;5071351;28;21076;-58
2021/03/28 05:03:45;;;;;;;3.83;3.53;;;5.60;1.00;;;;;;5069007;28;20468;-58
2021/03/28 05:06:24;;;;;;;5.37;3.40;;;5.70;1.00;;;;;;5070414;28;20449;-58
2021/03/28 05:09:16;;;;;;;5.30;3.90;;;5.70;1.00;;;;;;5066786;28;20445;-58
2021/03/28 05:12:12;;;;;;;5.67;4.40;;;5.70;1.00;;;;;;5067906;28;20532;-58
2021/03/28 05:14:56;;;;;;;3.67;2.93;;;5.60;1.00;;;;;;5067152;28;20456;-58
2021/03/28 05:17:24;;;;;;;4.87;3.93;;;5.60;1.00;;;;;;5069481;28;20452;-57
2021/03/28 05:20:27;;;;;;;5.43;3.30;;;5.50;1.00;;;;;;5069592;28;20481;-58
2021/03/28 05:23:41;;;;;;;4.10;3.53;;;5.50;1.00;;;;;;5069259;28;20500;-59
2021/03/28 05:26:40;;;;;;;4.10;3.70;;;5.50;1.00;;;;;;5067640;28;20547;-58
2021/03/28 05:29:39;;;;;;;6.03;3.93;;;5.50;1.00;;;;;;5068777;28;20784;-58
2021/03/28 05:32:55;;;;;;;4.77;3.53;;;5.70;1.00;;;;;;5066985;28;20453;-56
2021/03/28 05:35:40;;;;;;;6.30;4.70;;;5.70;1.00;;;;;;5045178;28;20442;-59
2021/03/28 05:38:19;;;;;;;5.70;4.80;;;5.80;1.00;;;;;;5061516;28;20533;-57
2021/03/28 05:41:13;;;;;;;5.03;4.00;;;5.90;1.00;;;;;;5061794;28;20441;-59
2021/03/28 05:44:04;;;;;;;6.53;4.53;;;6.00;1.00;;;;;;5066612;28;20556;-58
2021/03/28 05:47:01;;;;;;;9.37;5.40;;;6.10;1.00;;;;;;5062738;28;20445;-59
2021/03/28 05:49:52;;;;;;;8.13;5.00;;;6.10;1.00;;;;;;5068920;28;20535;-58
2021/03/28 05:52:41;;;;;;;6.90;4.63;;;6.10;1.00;;;;;;5065785;28;20518;-57
2021/03/28 05:55:43;;;;;;;7.93;4.57;;;6.20;1.00;;;;;;5068395;28;20682;-58
2021/03/28 05:58:44;;;;;;;7.87;4.40;;;6.30;1.00;;;;;;5066047;28;20768;-56
2021/03/28 06:01:19;;;;;;;8.00;4.20;;;6.30;1.00;;;;;;5068958;28;20549;-56
2021/03/28 06:04:03;;;;;;;8.37;4.03;;;6.40;1.00;;;;;;5070984;28;20479;-58
2021/03/28 06:06:48;;;;;;;5.90;3.80;;;6.50;1.00;;;;;;5068286;28;20553;-56
2021/03/28 06:09:33;;;;;;;7.37;3.50;;;6.60;1.00;;;;;;5065115;28;20502;-58
2021/03/28 06:12:31;;;;;;;6.57;3.20;;;6.70;1.00;;;;;;5067588;28;20447;-57
2021/03/28 06:15:09;;;;;;;5.33;3.40;;;6.70;1.00;;;;;;5063469;28;20540;-57
2021/03/28 06:18:05;;;;;;;3.77;3.37;;;6.70;1.00;;;;;;5067909;28;20450;-59
2021/03/28 06:21:04;;;;;;;4.60;3.10;;;6.80;1.00;;;;;;5069000;28;20445;-57
2021/03/28 06:23:35;;;;;;;4.47;3.40;;;6.90;1.00;;;;;;5068920;28;20483;-58
2021/03/28 06:26:45;;;;;;;4.90;3.53;;;7.00;1.00;;;;;;5069426;28;20461;-58
2021/03/28 06:29:29;;;;;;;4.70;3.60;;;7.10;1.00;;;;;;5069666;28;20472;-57
2021/03/28 06:32:11;;;;;;;3.90;3.60;;;7.20;1.00;;;;;;5068541;28;20452;-58
2021/03/28 06:35:11;;;;;;;3.77;3.43;;;7.20;1.00;;;;;;5069913;28;20477;-58
2021/03/28 06:38:15;;;;;;;5.53;3.80;;;7.20;1.00;;;;;;5068055;28;20445;-57
2021/03/28 06:41:08;;;;;;;4.77;3.83;;;7.30;1.00;;;;;;5067121;28;20575;-59
2021/03/28 06:43:52;;;;;;;4.73;2.80;;;7.40;1.00;;;;;;5068919;28;20495;-59
2021/03/28 06:46:52;;;;;;;5.03;3.63;;;7.50;1.00;;;;;;5068946;28;20989;-57
2021/03/28 06:49:37;;;;;;;6.83;3.30;;;7.60;1.00;;;;;;5067535;28;20582;-56
2021/03/28 06:52:19;;;;;;;6.60;3.43;;;7.70;1.00;;;;;;5068069;28;20548;-59
2021/03/28 06:55:30;;;;;;;3.83;3.20;;;7.80;1.00;;;;;;5068673;28;21063;-59
2021/03/28 06:58:26;;;;;;;4.70;3.20;;;7.90;1.00;;;;;;5069043;28;20441;-60
2021/03/28 07:00:57;;;;;;;3.97;2.97;;;8.10;1.00;;;;;;5069774;28;20444;-60
2021/03/28 07:03:40;;;;;;;4.67;3.43;;;8.30;1.00;;;;;;5072615;28;20465;-58
2021/03/28 07:06:27;;;;;;;3.60;3.30;;;8.40;1.00;;;;;;5069771;28;21081;-59
2021/03/28 07:08:59;;;;;;;4.70;3.00;;;8.60;1.00;;;;;;5069870;28;20447;-58
2021/03/28 07:11:51;;;;;;;6.60;3.53;;;8.90;1.00;;;;;;5071150;28;20936;-59
2021/03/28 07:14:40;;;;;;;4.27;3.43;;;9.10;1.00;;;;;;5068559;28;20461;-58
2021/03/28 07:17:24;;;;;;;6.23;4.77;;;9.40;1.00;;;;;;5071826;28;20540;-58
2021/03/28 07:20:17;;;;;;;4.73;3.30;;;9.40;1.00;;;;;;5070346;28;20439;-57
2021/03/28 07:23:08;;;;;;;3.73;3.23;;;9.60;1.00;;;;;;5068921;28;20466;-59
2021/03/28 07:26:03;;;;;;;7.43;3.63;;;9.80;1.00;;;;;;5075142;28;20468;-60
2021/03/28 07:28:50;;;;;;;3.53;2.70;;;9.90;1.00;;;;;;5070078;28;20955;-58
2021/03/28 07:31:49;;;;;;;4.00;3.23;;;9.90;1.00;;;;;;5074973;28;20527;-54
2021/03/28 07:35:05;;;;;;;6.20;3.63;;;9.80;1.00;;;;;;5069466;28;20472;-58
2021/03/28 07:37:57;;;;;;;7.87;3.07;;;9.90;1.00;;;;;;5040541;28;20534;-59
2021/03/28 07:40:50;;;;;;;5.20;3.10;;;9.80;1.00;;;;;;5090626;28;20516;-55
2021/03/28 07:43:29;;;;;;;5.00;3.37;;;10.10;1.00;;;;;;5070115;28;20804;-56
2021/03/28 07:46:11;;;;;;;5.20;3.60;;;10.40;1.00;;;;;;5070213;28;20828;-57
2021/03/28 07:48:52;;;;;;;7.93;3.90;;;10.30;1.00;;;;;;5068944;28;20790;-55
2021/03/28 07:51:36;;;;;;;5.53;3.13;;;10.50;1.00;;;;;;5075831;28;20783;-57
2021/03/28 07:54:23;;;;;;;3.67;3.30;;;10.70;1.00;;;;;;5067782;28;20756;-57
2021/03/28 07:56:48;;;;;;;4.20;3.50;;;11.00;1.00;;;;;;5069738;28;20488;-58
2021/03/28 07:59:43;;;;;;;4.23;3.40;;;11.20;1.00;;;;;;5069374;28;20435;-56
2021/03/28 08:02:45;;;;;;;4.30;2.97;;;11.50;1.00;;;;;;5069067;28;20553;-58
2021/03/28 08:05:43;;;;;;;5.53;3.27;;;11.80;1.00;;;;;;5067468;28;20445;-60
2021/03/28 08:08:41;;;;;;;8.43;3.87;;;11.80;1.00;;;;;;5076419;28;20443;-58
2021/03/28 08:11:18;;;;;;;3.93;2.83;;;11.90;1.00;;;;;;5069403;28;20444;-58
2021/03/28 08:14:00;;;;;;;5.43;2.80;;;12.00;1.00;;;;;;5068576;28;20447;-58
2021/03/28 08:16:44;;;;;;;5.90;3.40;;;12.10;1.00;;;;;;5067830;28;20463;-58
2021/03/28 08:19:37;;;;;;;5.40;3.20;;;12.30;1.00;;;;;;5071380;28;20463;-57
2021/03/28 08:22:18;;;;;;;7.10;3.40;;;12.50;1.00;;;;;;5081730;28;20456;-58
2021/03/28 08:25:13;;;;;;;4.87;2.90;;;12.60;1.00;;;;;;5072845;28;20463;-59
2021/03/28 08:28:17;;;;;;;4.43;2.90;;;12.70;1.00;;;;;;5073359;28;20435;-58
2021/03/28 08:31:02;;;;;;;6.37;3.13;;;12.80;1.00;;;;;;5073595;28;20506;-58
2021/03/28 08:34:08;;;;;;;5.90;2.73;;;13.10;1.00;;;;;;5077434;28;20440;-60
2021/03/28 08:37:00;;;;;;;4.77;3.10;;;13.20;1.00;;;;;;5073329;28;20437;-58
2021/03/28 08:39:44;;;;;;;8.77;3.33;;;13.10;1.00;;;;;;5086617;28;20448;-57
2021/03/28 08:42:39;;;;;;;2.90;2.70;;;12.50;1.00;;;;;;5087150;28;20463;-59
2021/03/28 08:45:28;;;;;;;5.73;2.93;;;12.80;1.00;;;;;;5072340;28;20444;-58
2021/03/28 08:48:31;;;;;;;4.83;2.90;;;12.90;1.00;;;;;;5068784;28;20457;-58
2021/03/28 08:51:04;;;;;;;5.03;3.30;;;12.90;1.00;;;;;;5076885;28;20445;-60
2021/03/28 08:54:07;;;;;;;3.93;2.73;;;12.90;1.00;;;;;;5075520;28;20502;-58
2021/03/28 08:56:47;;;;;;;8.60;3.20;;;12.80;1.00;;;;;;5072665;28;20439;-59
2021/03/28 08:59:40;;;;;;;7.37;2.70;;;12.20;1.00;;;;;;5073005;28;20760;-57
2021/03/28 09:02:05;;;;;;;8.30;3.37;;;12.80;1.00;;;;;;5072067;28;20471;-58
2021/03/28 09:04:58;;;;;;;6.70;4.13;;;12.70;1.00;;;;;;5073357;28;20455;-57
2021/03/28 09:07:53;;;;;;;9.60;3.57;;;12.70;1.00;;;;;;5071796;28;20178;-56
2021/03/28 09:10:41;;;;;;;3.60;2.90;;;12.90;1.00;;;;;;5077958;28;20964;-57
2021/03/28 09:13:33;;;;;;;4.33;3.03;;;13.20;1.00;;;;;;5072339;28;20440;-59
2021/03/28 09:16:36;;;;;;;6.03;3.20;;;13.10;1.00;;;;;;5072336;28;20479;-57
2021/03/28 09:19:16;;;;;;;4.17;2.90;;;12.70;1.00;;;;;;5070647;28;20482;-57
2021/03/28 09:21:44;;;;;;;5.67;3.10;;;12.70;1.00;;;;;;5080479;28;20520;-59
2021/03/28 09:24:29;;;;;;;7.30;3.40;;;13.10;1.00;;;;;;5076495;28;20435;-58
2021/03/28 09:27:38;;;;;;;6.20;2.80;;;13.30;1.00;;;;;;5070779;28;20940;-59
2021/03/28 09:30:16;;;;;;;4.40;2.53;;;13.30;1.00;;;;;;5072099;28;20801;-59
2021/03/28 09:33:13;;;;;;;3.53;2.60;;;13.40;1.00;;;;;;5071799;28;20535;-60
2021/03/28 09:35:58;;;;;;;8.17;2.97;;;13.70;1.00;;;;;;5071646;28;20481;-57
2021/03/28 09:38:51;;;;;;;3.90;2.70;;;13.70;1.00;;;;;;5071961;28;20475;-58
2021/03/28 09:41:22;;;;;;;4.80;2.30;;;13.70;1.00;;;;;;5071836;28;20476;-60
2021/03/28 09:44:06;;;;;;;8.13;3.27;;;13.20;1.00;;;;;;5072039;28;20910;-59
2021/03/28 09:46:59;;;;;;;4.53;2.87;;;12.90;1.00;;;;;;5071431;28;20520;-60
2021/03/28 09:49:40;;;;;;;3.83;2.43;;;13.00;1.00;;;;;;5071039;28;20441;-59
2021/03/28 09:52:23;;;;;;;3.13;2.87;;;13.00;1.00;;;;;;5080014;28;20449;-60
2021/03/28 09:55:11;;;;;;;4.17;2.60;;;12.90;1.00;;;;;;5071831;28;20472;-61
2021/03/28 09:58:04;;;;;;;6.60;2.73;;;12.40;1.00;;;;;;5068294;28;20460;-62
2021/03/28 10:00:53;;;;;;;6.60;2.43;;;12.10;1.00;;;;;;5071178;28;20447;-58
2021/03/28 10:03:30;;;;;;;5.27;2.83;;;14.00;1.00;;;;;;5067741;28;20495;-61
2021/03/28 10:06:03;;;;;;;6.33;3.27;;;12.40;1.00;;;;;;5070459;28;20452;-61
2021/03/28 10:08:37;;;;;;;3.30;2.00;;;12.80;1.00;;;;;;5073878;28;20472;-60
2021/03/28 10:11:19;;;;;;;4.00;2.13;;;12.70;1.00;;;;;;5077268;28;20479;-60
2021/03/28 10:13:56;;;;;;;6.77;2.60;;;13.20;1.00;;;;;;5079260;28;20953;-61
2021/03/28 10:16:45;;;;;;;4.37;2.30;;;13.20;1.00;;;;;;5070288;28;20441;-60
2021/03/28 10:19:22;;;;;;;6.60;3.00;;;13.40;1.00;;;;;;5065291;28;20452;-60
2021/03/28 10:22:18;;;;;;;3.57;2.83;;;13.40;1.00;;;;;;5072806;28;20457;-59
2021/03/28 10:25:31;;;;;;;5.40;2.37;;;13.50;1.00;;;;;;5069091;28;20476;-60
2021/03/28 10:28:15;;;;;;;3.67;2.30;;;13.70;1.00;;;;;;5067674;28;20440;-61
2021/03/28 10:31:18;;;;;;;6.70;3.80;;;13.80;1.00;;;;;;5068092;28;20455;-59
2021/03/28 10:33:53;;;;;;;6.27;3.27;;;14.10;1.00;;;;;;5069162;28;20819;-60
2021/03/28 10:36:41;;;;;;;10.33;3.10;;;14.40;1.00;;;;;;5072941;28;20453;-59
2021/03/28 10:39:31;;;;;;;6.83;2.87;;;14.60;1.00;;;;;;5064544;28;20448;-59
2021/03/28 10:42:19;;;;;;;6.40;2.50;;;14.00;1.00;;;;;;5066104;28;20468;-61
2021/03/28 10:44:53;;;;;;;7.30;3.00;;;13.50;1.00;;;;;;5062593;28;20444;-60
2021/03/28 10:47:49;;;;;;;9.77;3.10;;;13.50;1.00;;;;;;5069584;28;20468;-59
2021/03/28 10:50:50;;;;;;;7.50;2.50;;;14.00;1.00;;;;;;5071844;28;20495;-58
2021/03/28 10:53:41;;;;;;;3.83;2.60;;;14.60;1.00;;;;;;5068378;28;20799;-59
2021/03/28 10:56:26;;;;;;;6.70;3.03;;;15.00;1.00;;;;;;5070362;28;20469;-58
2021/03/28 10:59:31;;;;;;;7.13;2.50;;;14.30;1.00;;;;;;5070970;28;20827;-60
2021/03/28 11:02:28;;;;;;;6.40;2.90;;;14.00;1.00;;;;;;5076344;28;20453;-60
2021/03/28 11:04:56;;;;;;;9.83;3.00;;;14.20;1.00;;;;;;5068000;28;20438;-61
2021/03/28 11:08:00;;;;;;;5.40;3.23;;;14.20;1.00;;;;;;5070987;28;20437;-61
2021/03/28 11:10:52;;;;;;;6.60;3.20;;;13.90;1.00;;;;;;5069466;28;20967;-59
2021/03/28 11:13:57;;;;;;;5.27;3.40;;;13.60;1.00;;;;;;5074599;28;20444;-58
2021/03/28 11:16:43;;;;;;;7.13;2.97;;;13.30;1.00;;;;;;5089936;28;20497;-59
2021/03/28 11:19:46;;;;;;;7.70;2.97;;;13.70;1.00;;;;;;5074065;28;20464;-58
2021/03/28 11:22:23;;;;;;;4.73;2.53;;;13.70;1.00;;;;;;5059282;28;20472;-59
2021/03/28 11:24:59;;;;;;;5.40;3.07;;;13.90;1.00;;;;;;5072001;28;20923;-60
2021/03/28 11:28:02;;;;;;;6.17;3.00;;;14.10;1.00;;;;;;5084764;28;20437;-59
2021/03/28 11:30:31;;;;;;;5.50;3.33;;;14.20;1.00;;;;;;5067499;28;20471;-59
2021/03/28 11:33:09;;;;;;;8.20;3.17;;;13.80;1.00;;;;;;5068735;28;20441;-59
2021/03/28 11:35:46;;;;;;;3.97;2.43;;;13.60;1.00;;;;;;5070502;28;20440;-62
2021/03/28 11:38:18;;;;;;;5.93;2.70;;;13.70;1.00;;;;;;5071374;28;20437;-61
2021/03/28 11:41:14;;;;;;;6.83;3.10;;;13.90;1.00;;;;;;5079886;28;20441;-60
2021/03/28 11:43:45;;;;;;;5.53;2.73;;;14.20;1.00;;;;;;5082229;28;20476;-58
2021/03/28 11:46:32;;;;;;;6.00;2.57;;;15.10;1.00;;;;;;5090812;28;20452;-59
2021/03/28 11:48:58;;;;;;;5.77;3.23;;;15.10;1.00;;;;;;5068070;28;20441;-60
2021/03/28 11:51:39;;;;;;;6.67;2.73;;;15.50;1.00;;;;;;5070101;28;20945;-58
2021/03/28 11:54:10;;;;;;;6.77;2.80;;;15.40;1.00;;;;;;5068995;28;20993;-60
2021/03/28 11:56:43;;;;;;;5.30;2.43;;;15.20;1.00;;;;;;5068750;28;20563;-59
2021/03/28 11:59:29;;;;;;;4.50;2.30;;;15.10;1.00;;;;;;5074895;28;20587;-59
2021/03/28 12:01:59;;;;;;;5.87;2.43;;;14.80;1.00;;;;;;5083698;28;20433;-60
2021/03/28 12:04:38;;;;;;;6.40;2.20;;;14.10;1.00;;;;;;5068831;28;20433;-58
2021/03/28 12:07:31;;;;;;;4.60;2.30;;;14.00;1.00;;;;;;5086228;28;20436;-59
2021/03/28 12:10:00;;;;;;;3.40;1.97;;;14.10;1.00;;;;;;5079211;28;20442;-59
2021/03/28 12:12:48;;;;;;;5.23;2.27;;;14.60;1.00;;;;;;5070352;28;20937;-60
2021/03/28 12:15:44;;;;;;;4.13;1.80;;;15.00;1.00;;;;;;5070065;28;20532;-58
2021/03/28 12:18:28;;;;;;;3.10;1.70;;;15.60;1.00;;;;;;5070414;28;20499;-59
2021/03/28 12:21:03;;;;;;;4.93;1.80;;;15.30;1.00;;;;;;5070178;28;20780;-57
2021/03/28 12:23:41;;;;;;;3.40;2.10;;;14.60;1.00;;;;;;5089230;28;20459;-61
2021/03/28 12:26:15;;;;;;;3.30;1.67;;;14.60;1.00;;;;;;5074979;28;20472;-60
2021/03/28 12:28:53;;;;;;;4.20;2.00;;;14.60;1.00;;;;;;5069867;28;20460;-59
2021/03/28 12:31:37;;;;;;;5.33;2.00;;;14.60;1.00;;;;;;5075446;28;20441;-59
2021/03/28 12:34:25;;;;;;;5.93;2.83;;;14.70;1.00;;;;;;5070365;28;20787;-59
2021/03/28 12:36:57;;;;;;;3.57;2.10;;;14.60;1.00;;;;;;5070085;28;20513;-59
2021/03/28 12:39:41;;;;;;;4.73;1.90;;;14.30;1.00;;;;;;5069006;28;20429;-59
2021/03/28 12:42:24;;;;;;;7.80;1.97;;;14.30;1.00;;;;;;5073090;28;20468;-59
2021/03/28 12:45:09;;;;;;;3.50;1.70;;;14.20;1.00;;;;;;5063779;28;20451;-59
2021/03/28 12:47:52;;;;;;;3.27;1.70;;;14.50;1.00;;;;;;5069948;28;20777;-59
2021/03/28 12:50:18;;;;;;;3.63;1.57;;;14.40;1.00;;;;;;5069955;28;20428;-59
2021/03/28 12:53:01;;;;;;;2.57;1.33;;;14.30;1.00;;;;;;5069637;28;20446;-58
2021/03/28 12:55:32;;;;;;;5.73;1.30;;;14.10;1.00;;;;;;5068761;28;20171;-59
2021/03/28 12:58:07;;;;;;;3.80;1.70;;;14.10;1.00;;;;;;5070078;28;20487;-60
2021/03/28 13:00:51;;;;;;;3.20;2.17;;;14.80;1.00;;;;;;5069447;28;20467;-60
2021/03/28 13:03:30;;;;;;;3.73;2.07;;;14.90;1.00;;;;;;5070548;28;20499;-59
2021/03/28 13:06:17;;;;;;;5.33;1.77;;;15.60;1.00;;;;;;5073354;28;20703;-59
2021/03/28 13:08:54;;;;;;;1.80;1.53;;;15.80;1.00;;;;;;5073660;28;20431;-59
2021/03/28 13:11:48;;;;;;;3.80;2.67;;;15.60;1.00;;;;;;5084112;28;20434;-58
2021/03/28 13:14:28;;;;;;;5.57;1.97;;;14.80;1.00;;;;;;5073192;28;20569;-60
2021/03/28 13:17:12;;;;;;;1.30;1.20;;;14.30;1.00;;;;;;5071006;28;20531;-60
2021/03/28 13:19:39;;;;;;;3.60;1.70;;;14.40;1.00;;;;;;5078433;28;20429;-59
2021/03/28 13:22:35;;;;;;;3.87;1.80;;;14.40;1.00;;;;;;5070520;28;20437;-60
2021/03/28 13:25:28;;;;;;;5.30;1.50;;;14.20;1.00;;;;;;5072142;28;20979;-58
2021/03/28 13:28:00;;;;;;;2.97;1.60;;;14.20;1.00;;;;;;5071465;28;20437;-60
2021/03/28 13:30:29;;;;;;;3.10;1.43;;;14.50;1.00;;;;;;5073087;28;20426;-59
2021/03/28 13:32:57;;;;;;;2.90;1.50;;;14.80;1.00;;;;;;5078231;28;20985;-59
2021/03/28 13:35:40;;;;;;;6.70;1.80;;;14.80;1.00;;;;;;5072343;28;20798;-58
2021/03/28 13:38:26;;;;;;;2.03;1.57;;;14.80;1.00;;;;;;5072777;28;20430;-60
2021/03/28 13:40:55;;;;;;;2.90;1.43;;;14.90;1.00;;;;;;5072418;28;20524;-59
2021/03/28 13:43:41;;;;;;;4.33;1.63;;;14.90;1.00;;;;;;5072417;28;20457;-58
2021/03/28 13:46:19;;;;;;;2.90;1.60;;;14.50;1.00;;;;;;5073822;28;20480;-60
2021/03/28 13:48:47;;;;;;;4.53;2.00;;;14.20;1.00;;;;;;5092854;28;20928;-60
2021/03/28 13:51:13;;;;;;;6.80;2.10;;;14.60;1.00;;;;;;5083050;28;20532;-59
2021/03/28 13:54:03;;;;;;;7.23;2.10;;;14.50;1.00;;;;;;5072544;28;20576;-58
2021/03/28 13:56:34;;;;;;;6.83;2.60;;;14.80;1.00;;;;;;5073000;28;20240;-59
2021/03/28 13:59:06;;;;;;;3.17;2.60;;;14.70;1.00;;;;;;5092678;28;20440;-59
2021/03/28 14:01:55;;;;;;;3.40;1.70;;;14.90;1.00;;;;;;5071953;28;20452;-59
2021/03/28 14:04:30;;;;;;;4.53;2.17;;;14.80;1.00;;;;;;5071668;28;20785;-60
2021/03/28 14:07:13;;;;;;;6.00;2.00;;;14.90;1.00;;;;;;5072572;28;20429;-58
2021/03/28 14:09:55;;;;;;;4.00;1.90;;;14.90;1.00;;;;;;5086413;28;20432;-60
2021/03/28 14:12:32;;;;;;;5.33;1.97;;;15.00;1.00;;;;;;5079508;28;20441;-58
2021/03/28 14:15:20;;;;;;;2.60;2.00;;;14.90;1.00;;;;;;5089731;28;20455;-58
2021/03/28 14:18:13;;;;;;;3.13;2.03;;;14.90;1.00;;;;;;5071477;28;20512;-60
2021/03/28 14:20:42;;;;;;;4.03;1.90;;;14.50;1.00;;;;;;5048303;28;20482;-60
2021/03/28 14:23:10;;;;;;;3.37;2.00;;;14.50;1.00;;;;;;5071827;28;20929;-60
2021/03/28 14:25:50;;;;;;;4.47;2.17;;;14.60;1.00;;;;;;5071798;28;20466;-59
2021/03/28 14:28:27;;;;;;;4.10;1.80;;;14.90;1.00;;;;;;5071920;28;20984;-59
2021/03/28 14:31:12;;;;;;;4.93;2.10;;;14.90;1.00;;;;;;5071572;28;20459;-59
2021/03/28 14:34:02;;;;;;;3.13;1.80;;;15.10;1.00;;;;;;5082574;28;20444;-60
2021/03/28 14:36:36;;;;;;;3.27;1.87;;;15.20;1.00;;;;;;5070323;28;20477;-61
2021/03/28 14:39:35;;;;;;;3.97;2.43;;;15.50;1.00;;;;;;5071379;28;20502;-59
2021/03/28 14:42:14;;;;;;;4.47;2.57;;;15.50;1.00;;;;;;5075254;28;20494;-58